Time;durP1;ratioP1;P1;durP2;ratioP2;P2;SDS_P1;SDS_P2;PMS_P1;PMS_P2;Temp;Humidity;BMP_temperature;BMP_pressure;BME280_temperature;BME280_humidity;BME280_pressure;Samples;Min_cycle;Max_cycle;Signal;HPM_P1;HPM_P2
2024/02/18 00:01:35;;;;;;;21.63;8.90;;;7.40;98.00;;;;;;5034218;28;20458;-65
2024/02/18 00:04:02;;;;;;;19.47;9.50;;;7.40;98.00;;;;;;5018293;28;20458;-65
2024/02/18 00:06:30;;;;;;;25.70;10.80;;;7.20;98.00;;;;;;5035268;28;20952;-66
2024/02/18 00:08:57;;;;;;;24.60;10.37;;;7.10;98.00;;;;;;5035484;28;20493;-66
2024/02/18 00:11:25;;;;;;;20.43;8.60;;;7.20;98.00;;;;;;5035772;28;20458;-65
2024/02/18 00:13:54;;;;;;;20.30;8.10;;;7.20;98.00;;;;;;5035492;28;20447;-66
2024/02/18 00:16:21;;;;;;;18.83;7.87;;;7.30;98.00;;;;;;5035560;28;20537;-65
2024/02/18 00:18:49;;;;;;;17.43;7.83;;;7.30;98.00;;;;;;5018013;28;21152;-65
2024/02/18 00:21:20;;;;;;;17.87;8.00;;;7.40;98.00;;;;;;5035558;28;20482;-66
2024/02/18 00:23:47;;;;;;;16.33;8.20;;;7.60;98.00;;;;;;5035482;28;20454;-65
2024/02/18 00:26:15;;;;;;;19.07;8.27;;;7.60;98.00;;;;;;5035467;28;20452;-65
2024/02/18 00:28:44;;;;;;;17.87;8.30;;;7.40;98.00;;;;;;5035462;28;20457;-65
2024/02/18 00:31:11;;;;;;;17.40;8.10;;;7.30;98.00;;;;;;5034899;28;20469;-66
2024/02/18 00:33:38;;;;;;;18.60;8.73;;;7.20;98.00;;;;;;5017984;28;20450;-66
2024/02/18 00:36:06;;;;;;;16.60;7.83;;;7.30;98.00;;;;;;5017773;28;20452;-65
2024/02/18 00:38:33;;;;;;;23.50;8.40;;;7.40;98.00;;;;;;5035327;28;20450;-66
2024/02/18 00:41:02;;;;;;;22.73;9.73;;;7.60;98.00;;;;;;5035267;28;20746;-65
2024/02/18 00:43:29;;;;;;;24.47;11.43;;;7.50;98.00;;;;;;5035109;28;20949;-66
2024/02/18 00:45:58;;;;;;;29.90;11.53;;;7.30;98.00;;;;;;5034759;28;20505;-65
2024/02/18 00:48:26;;;;;;;26.37;10.53;;;7.30;98.00;;;;;;5034702;28;20449;-66
2024/02/18 00:50:53;;;;;;;25.17;9.43;;;7.40;98.00;;;;;;5035301;28;20450;-66
2024/02/18 00:53:20;;;;;;;20.20;8.33;;;7.30;98.00;;;;;;5017316;28;20500;-65
2024/02/18 00:55:47;;;;;;;19.03;8.63;;;7.30;98.00;;;;;;5034972;28;20956;-66
2024/02/18 00:58:15;;;;;;;18.03;8.20;;;7.20;98.00;;;;;;5034782;28;20460;-65
2024/02/18 01:00:43;;;;;;;17.67;8.23;;;7.30;98.00;;;;;;5035121;28;21093;-66
2024/02/18 01:03:11;;;;;;;17.50;8.33;;;7.30;98.00;;;;;;5034764;28;20463;-66
2024/02/18 01:05:39;;;;;;;20.00;8.27;;;7.30;98.00;;;;;;5034882;28;20454;-65
2024/02/18 01:08:07;;;;;;;17.27;7.70;;;7.30;98.00;;;;;;5017218;28;20468;-65
2024/02/18 01:10:34;;;;;;;20.60;8.40;;;7.40;98.00;;;;;;5034609;28;20454;-66
2024/02/18 01:13:01;;;;;;;18.90;8.53;;;7.50;98.00;;;;;;5034044;28;20460;-65
2024/02/18 01:15:28;;;;;;;17.67;8.23;;;7.40;98.00;;;;;;5034381;28;20465;-65
2024/02/18 01:17:55;;;;;;;21.27;8.57;;;7.30;98.00;;;;;;5034258;28;20450;-66
2024/02/18 01:20:23;;;;;;;18.97;7.60;;;7.40;98.00;;;;;;5016767;28;21024;-66
2024/02/18 01:22:51;;;;;;;13.47;7.23;;;7.20;98.00;;;;;;5033952;28;20454;-65
2024/02/18 01:25:18;;;;;;;16.33;7.60;;;7.20;98.00;;;;;;5033602;28;20451;-65
2024/02/18 01:27:46;;;;;;;22.50;9.10;;;7.40;98.00;;;;;;5033361;28;20464;-65
2024/02/18 01:30:14;;;;;;;18.63;7.90;;;7.50;98.00;;;;;;5016137;28;20453;-65
2024/02/18 01:32:41;;;;;;;18.60;7.97;;;7.60;98.00;;;;;;5033461;28;20455;-65
2024/02/18 01:35:08;;;;;;;17.97;7.80;;;7.60;98.00;;;;;;5033448;28;20524;-65
2024/02/18 01:37:37;;;;;;;17.97;8.17;;;7.70;98.00;;;;;;5033386;28;20457;-65
2024/02/18 01:40:07;;;;;;;24.20;8.20;;;7.70;98.00;;;;;;5033364;28;20479;-66
2024/02/18 01:42:36;;;;;;;21.07;8.20;;;7.60;98.00;;;;;;5033337;28;20462;-65
2024/02/18 01:45:05;;;;;;;21.43;7.70;;;7.60;98.00;;;;;;5033279;28;20446;-65
2024/02/18 01:47:32;;;;;;;15.50;7.60;;;7.60;98.00;;;;;;5016132;28;20501;-66
2024/02/18 01:50:00;;;;;;;16.90;7.57;;;7.70;98.00;;;;;;5032937;28;20457;-65
2024/02/18 01:52:28;;;;;;;18.73;7.67;;;7.80;98.00;;;;;;5033267;28;20458;-65
2024/02/18 01:54:58;;;;;;;16.87;7.83;;;7.80;98.00;;;;;;5032971;28;20450;-66
2024/02/18 01:57:27;;;;;;;13.40;7.00;;;7.60;98.00;;;;;;5033052;28;20466;-66
2024/02/18 01:59:56;;;;;;;15.40;7.40;;;7.60;98.00;;;;;;5032828;28;20472;-65
2024/02/18 02:02:23;;;;;;;17.40;7.70;;;7.70;98.00;;;;;;5033027;28;20473;-66
2024/02/18 02:04:50;;;;;;;16.77;7.47;;;7.60;98.00;;;;;;5032663;28;20451;-66
2024/02/18 02:07:19;;;;;;;16.47;7.77;;;7.40;98.00;;;;;;5031722;28;20474;-66
2024/02/18 02:09:47;;;;;;;16.70;7.67;;;7.40;98.00;;;;;;5032918;28;20450;-66
2024/02/18 02:12:16;;;;;;;17.27;7.73;;;7.40;98.00;;;;;;5032611;28;20465;-66
2024/02/18 02:14:44;;;;;;;17.17;8.00;;;7.40;98.00;;;;;;5032400;28;20461;-66
2024/02/18 02:17:14;;;;;;;19.70;7.83;;;7.40;98.00;;;;;;5032652;28;20819;-65
2024/02/18 02:19:41;;;;;;;15.63;7.60;;;7.40;98.00;;;;;;5032693;28;21115;-65
2024/02/18 02:22:08;;;;;;;16.60;7.93;;;7.50;98.00;;;;;;5032246;28;20493;-66
2024/02/18 02:24:36;;;;;;;17.53;7.80;;;7.60;98.00;;;;;;5031882;28;20446;-65
2024/02/18 02:27:07;;;;;;;15.37;7.50;;;7.60;98.00;;;;;;5032470;28;20450;-65
2024/02/18 02:29:36;;;;;;;14.87;7.17;;;7.60;98.00;;;;;;5032808;28;20471;-65
2024/02/18 02:32:03;;;;;;;13.53;6.67;;;7.50;98.00;;;;;;5032089;28;20474;-66
2024/02/18 02:34:30;;;;;;;14.67;6.87;;;7.60;98.00;;;;;;5032373;28;20491;-66
2024/02/18 02:36:58;;;;;;;15.90;6.97;;;7.60;98.00;;;;;;5032234;28;20457;-66
2024/02/18 02:39:25;;;;;;;19.47;8.13;;;7.90;98.00;;;;;;5031949;28;20511;-65
2024/02/18 02:41:52;;;;;;;21.13;7.27;;;7.80;98.00;;;;;;5032293;28;20486;-66
2024/02/18 02:44:19;;;;;;;15.70;8.17;;;7.70;98.00;;;;;;5032491;28;20458;-65
2024/02/18 02:46:50;;;;;;;15.63;7.57;;;7.70;98.00;;;;;;5032928;28;20461;-66
2024/02/18 02:49:17;;;;;;;14.87;7.00;;;7.50;98.00;;;;;;5033149;28;20455;-66
2024/02/18 02:51:44;;;;;;;15.20;7.73;;;7.50;98.00;;;;;;5032978;28;20462;-66
2024/02/18 02:54:11;;;;;;;23.70;7.67;;;7.50;98.00;;;;;;5032793;28;20454;-65
2024/02/18 02:56:38;;;;;;;15.63;7.20;;;7.60;98.00;;;;;;5031470;28;20827;-65
2024/02/18 02:59:05;;;;;;;13.83;6.93;;;7.70;98.00;;;;;;5032485;28;20457;-66
2024/02/18 03:01:33;;;;;;;15.97;7.43;;;7.70;98.00;;;;;;5032329;28;20490;-65
2024/02/18 03:04:01;;;;;;;18.93;7.80;;;7.70;98.00;;;;;;5032221;28;20769;-64
2024/02/18 03:06:29;;;;;;;15.53;7.40;;;7.60;98.00;;;;;;5032193;28;20447;-66
2024/02/18 03:08:57;;;;;;;16.63;7.30;;;7.60;98.00;;;;;;5032033;28;20465;-66
2024/02/18 03:11:26;;;;;;;18.87;7.10;;;7.40;98.00;;;;;;5032215;28;20497;-65
2024/02/18 03:13:53;;;;;;;13.77;6.90;;;7.20;98.00;;;;;;5032004;28;20486;-66
2024/02/18 03:16:21;;;;;;;15.90;6.70;;;7.20;98.00;;;;;;5032031;28;20462;-65
2024/02/18 03:18:48;;;;;;;14.43;6.80;;;7.30;98.00;;;;;;5032002;28;20451;-65
2024/02/18 03:21:16;;;;;;;14.17;6.53;;;7.30;98.00;;;;;;5032036;28;20490;-66
2024/02/18 03:23:44;;;;;;;19.13;7.13;;;7.40;98.00;;;;;;5031854;28;20452;-66
2024/02/18 03:26:11;;;;;;;16.03;7.37;;;7.30;98.00;;;;;;5031764;28;20805;-67
2024/02/18 03:28:38;;;;;;;17.13;7.20;;;7.20;98.00;;;;;;5031839;28;20461;-66
2024/02/18 03:31:06;;;;;;;15.70;7.53;;;7.10;98.00;;;;;;5032038;28;20475;-66
2024/02/18 03:33:34;;;;;;;16.03;6.73;;;6.80;98.00;;;;;;5031825;28;20451;-65
2024/02/18 03:36:02;;;;;;;11.03;6.17;;;6.90;98.00;;;;;;5031874;28;20454;-66
2024/02/18 03:38:30;;;;;;;23.93;7.47;;;7.00;98.00;;;;;;5032075;28;20454;-65
2024/02/18 03:40:57;;;;;;;15.10;7.50;;;7.00;98.00;;;;;;5031746;28;20475;-65
2024/02/18 03:43:29;;;;;;;14.80;7.40;;;7.00;98.00;;;;;;5031903;28;20466;-66
2024/02/18 03:45:56;;;;;;;16.67;7.73;;;6.90;98.00;;;;;;5014395;28;20450;-66
2024/02/18 03:48:23;;;;;;;18.73;8.30;;;6.80;98.00;;;;;;5031791;28;20477;-65
2024/02/18 03:50:50;;;;;;;16.33;7.57;;;6.70;98.00;;;;;;5032022;28;20461;-66
2024/02/18 03:53:17;;;;;;;18.13;7.50;;;6.60;98.00;;;;;;5031957;28;20450;-66
2024/02/18 03:55:47;;;;;;;17.73;7.47;;;6.70;98.00;;;;;;5032017;28;20447;-66
2024/02/18 03:58:15;;;;;;;16.17;7.67;;;6.70;98.00;;;;;;5031626;28;20468;-66
2024/02/18 04:00:45;;;;;;;14.00;7.20;;;6.50;98.00;;;;;;5042695;28;22369;-65
2024/02/18 04:03:13;;;;;;;16.67;7.73;;;6.40;98.00;;;;;;5051685;28;20453;-65
2024/02/18 04:05:40;;;;;;;18.10;7.80;;;6.30;98.00;;;;;;5052025;28;20481;-66
2024/02/18 04:08:07;;;;;;;16.77;7.07;;;6.30;98.00;;;;;;5051785;28;20826;-66
2024/02/18 04:10:37;;;;;;;14.07;7.10;;;6.30;98.00;;;;;;5051373;28;20448;-65
2024/02/18 04:13:05;;;;;;;16.20;6.70;;;6.30;98.00;;;;;;5051594;28;21040;-65
2024/02/18 04:15:33;;;;;;;15.27;7.47;;;6.20;98.00;;;;;;5051584;28;20458;-65
2024/02/18 04:18:00;;;;;;;13.60;6.63;;;6.10;98.00;;;;;;5033878;28;20479;-65
2024/02/18 04:20:27;;;;;;;14.27;6.27;;;6.10;98.00;;;;;;5051467;28;20465;-66
2024/02/18 04:22:54;;;;;;;15.07;6.90;;;6.20;98.00;;;;;;5051361;28;20456;-66
2024/02/18 04:25:22;;;;;;;15.17;7.00;;;6.30;98.00;;;;;;5033862;28;20461;-66
2024/02/18 04:27:49;;;;;;;14.10;6.67;;;6.30;98.00;;;;;;5051558;28;20550;-66
2024/02/18 04:30:17;;;;;;;13.67;6.47;;;6.10;98.00;;;;;;5033858;28;20448;-65
2024/02/18 04:32:44;;;;;;;13.27;6.10;;;6.20;98.00;;;;;;5051521;28;20813;-65
2024/02/18 04:35:11;;;;;;;15.40;6.63;;;6.20;98.00;;;;;;5051468;28;20806;-65
2024/02/18 04:37:39;;;;;;;13.50;6.50;;;6.00;98.00;;;;;;5051619;28;20796;-65
2024/02/18 04:40:07;;;;;;;14.60;6.40;;;6.00;98.00;;;;;;5051635;28;20966;-65
2024/02/18 04:42:37;;;;;;;12.53;6.00;;;5.90;98.00;;;;;;5051418;28;20489;-65
2024/02/18 04:45:04;;;;;;;14.17;6.40;;;6.00;98.00;;;;;;5051083;28;20449;-65
2024/02/18 04:47:33;;;;;;;18.03;7.23;;;5.90;98.00;;;;;;5053272;28;20465;-65
2024/02/18 04:50:03;;;;;;;15.50;6.80;;;5.80;98.00;;;;;;5054792;28;20929;-65
2024/02/18 04:52:30;;;;;;;15.70;6.50;;;5.90;98.00;;;;;;5054903;28;20448;-65
2024/02/18 04:54:57;;;;;;;16.07;6.80;;;5.90;98.00;;;;;;5054897;28;20449;-65
2024/02/18 04:57:24;;;;;;;18.00;6.90;;;5.80;98.00;;;;;;5054795;28;20972;-66
2024/02/18 04:59:52;;;;;;;15.90;6.93;;;5.70;98.00;;;;;;5054707;28;20463;-65
2024/02/18 05:02:19;;;;;;;13.27;6.73;;;5.90;98.00;;;;;;5054622;28;20514;-65
2024/02/18 05:04:47;;;;;;;11.87;6.10;;;6.00;98.00;;;;;;5054606;28;20515;-65
2024/02/18 05:07:15;;;;;;;16.93;7.37;;;;;;;;;;5053963;28;20557;-65
2024/02/18 05:09:42;;;;;;;15.47;6.70;;;5.90;98.00;;;;;;5053883;28;20544;-65
2024/02/18 05:12:09;;;;;;;13.90;7.00;;;5.80;98.00;;;;;;5053849;28;20471;-65
2024/02/18 05:14:36;;;;;;;13.77;6.17;;;5.80;98.00;;;;;;5053948;28;20460;-65
2024/02/18 05:17:05;;;;;;;14.30;6.77;;;5.70;98.00;;;;;;5054218;28;21031;-66
2024/02/18 05:19:32;;;;;;;16.07;6.63;;;5.70;98.00;;;;;;5054278;28;20452;-65
2024/02/18 05:22:02;;;;;;;14.27;6.40;;;5.60;98.00;;;;;;5053729;28;20966;-66
2024/02/18 05:24:30;;;;;;;24.57;5.80;;;5.50;98.00;;;;;;5054151;28;20452;-65
2024/02/18 05:26:57;;;;;;;12.83;6.00;;;5.50;98.00;;;;;;5053989;28;20458;-66
2024/02/18 05:29:24;;;;;;;17.70;7.23;;;5.50;98.00;;;;;;5054243;28;20460;-65
2024/02/18 05:31:51;;;;;;;17.93;6.70;;;5.50;98.00;;;;;;5054145;28;20537;-65
2024/02/18 05:34:18;;;;;;;14.47;6.23;;;5.50;98.00;;;;;;5054150;28;20518;-65
2024/02/18 05:36:45;;;;;;;17.40;7.33;;;5.30;98.00;;;;;;5054029;28;20443;-65
2024/02/18 05:39:14;;;;;;;21.43;7.67;;;5.20;98.00;;;;;;5054458;28;21057;-65
2024/02/18 05:41:41;;;;;;;14.80;6.40;;;5.30;98.00;;;;;;5053892;28;20594;-65
2024/02/18 05:44:09;;;;;;;20.23;7.50;;;5.40;98.00;;;;;;5053889;28;20529;-66
2024/02/18 05:46:36;;;;;;;15.90;7.57;;;5.30;98.00;;;;;;5053925;28;20480;-66
2024/02/18 05:49:04;;;;;;;17.40;7.37;;;5.10;98.00;;;;;;5053817;28;20457;-65
2024/02/18 05:51:31;;;;;;;18.03;6.63;;;5.20;98.00;;;;;;5053944;28;20850;-66
2024/02/18 05:53:59;;;;;;;16.73;7.10;;;5.20;98.00;;;;;;5036053;28;20495;-65
2024/02/18 05:56:27;;;;;;;23.53;9.00;;;5.20;98.00;;;;;;5053303;28;20456;-65
2024/02/18 05:58:54;;;;;;;23.10;8.90;;;5.30;98.00;;;;;;5041126;28;20460;-65
2024/02/18 06:01:21;;;;;;;21.47;8.60;;;5.20;98.00;;;;;;5032458;28;20492;-67
2024/02/18 06:03:49;;;;;;;18.60;8.00;;;5.20;98.00;;;;;;5033411;28;20459;-67
2024/02/18 06:06:16;;;;;;;17.30;8.00;;;5.30;98.00;;;;;;5015991;28;20455;-67
2024/02/18 06:08:43;;;;;;;22.40;7.80;;;5.30;98.00;;;;;;5033238;28;20457;-66
2024/02/18 06:11:10;;;;;;;14.90;7.10;;;5.30;98.00;;;;;;5033622;28;20926;-67
2024/02/18 06:13:41;;;;;;;20.73;8.53;;;5.40;98.00;;;;;;5033501;28;20454;-67
2024/02/18 06:16:08;;;;;;;21.50;7.80;;;5.60;98.00;;;;;;5016133;28;20488;-66
2024/02/18 06:18:35;;;;;;;19.70;8.07;;;5.60;98.00;;;;;;5033576;28;20454;-67
2024/02/18 06:21:04;;;;;;;21.20;8.47;;;5.60;98.00;;;;;;5033091;28;20456;-67
2024/02/18 06:23:31;;;;;;;25.03;8.40;;;5.70;98.00;;;;;;5033725;28;20495;-67
2024/02/18 06:25:58;;;;;;;19.10;7.87;;;5.60;98.00;;;;;;5033542;28;20458;-66
2024/02/18 06:28:32;;;;;;;26.83;8.40;;;5.50;98.00;;;;;;5033331;28;20454;-66
2024/02/18 06:33:34;;;;;;;17.93;7.77;;;5.60;98.00;;;;;;4991537;28;20479;-68
2024/02/18 06:36:01;;;;;;;15.43;6.70;;;5.50;98.00;;;;;;4993115;28;20983;-68
2024/02/18 06:38:28;;;;;;;22.10;7.30;;;5.60;98.00;;;;;;4992250;28;20466;-68
2024/02/18 06:40:55;;;;;;;15.93;7.00;;;5.70;98.00;;;;;;4993066;28;20470;-68
2024/02/18 06:43:22;;;;;;;17.23;7.50;;;5.60;98.00;;;;;;4993100;28;20484;-68
2024/02/18 06:45:49;;;;;;;16.83;7.43;;;5.50;98.00;;;;;;4992088;28;20463;-68
2024/02/18 06:48:16;;;;;;;14.17;6.90;;;5.70;98.00;;;;;;4975372;28;20462;-68
2024/02/18 06:50:45;;;;;;;27.60;7.50;;;5.70;98.00;;;;;;4992853;28;20486;-68
2024/02/18 06:53:13;;;;;;;15.43;7.03;;;5.80;98.00;;;;;;4992832;28;21063;-68
2024/02/18 06:55:40;;;;;;;32.20;8.23;;;5.80;98.00;;;;;;4992921;28;20502;-68
2024/02/18 06:58:08;;;;;;;39.67;7.70;;;5.70;98.00;;;;;;4992574;28;20457;-67
2024/02/18 07:00:35;;;;;;;16.10;7.10;;;5.60;98.00;;;;;;4959803;28;20606;-63
2024/02/18 07:03:03;;;;;;;39.17;8.00;;;5.60;98.00;;;;;;4992505;28;20889;-63
2024/02/18 07:05:30;;;;;;;15.27;6.90;;;5.60;98.00;;;;;;4992480;28;20541;-63
2024/02/18 07:07:59;;;;;;;22.30;6.93;;;5.60;98.00;;;;;;4992530;28;20461;-63
2024/02/18 07:10:28;;;;;;;17.53;6.57;;;5.90;98.00;;;;;;4992383;28;20456;-63
2024/02/18 07:12:55;;;;;;;16.27;6.83;;;6.00;98.00;;;;;;4992469;28;20454;-63
2024/02/18 07:15:22;;;;;;;17.10;7.17;;;6.20;98.00;;;;;;4992050;28;20460;-63
2024/02/18 07:17:49;;;;;;;17.67;6.93;;;6.30;98.00;;;;;;4992034;28;20542;-63
2024/02/18 07:20:16;;;;;;;17.57;6.87;;;6.30;98.00;;;;;;4975247;28;20464;-63
2024/02/18 07:22:45;;;;;;;15.33;6.70;;;6.20;98.00;;;;;;4992139;28;20479;-63
2024/02/18 07:25:13;;;;;;;15.23;6.40;;;6.20;98.00;;;;;;4992090;28;20495;-63
2024/02/18 07:27:40;;;;;;;14.27;6.90;;;6.30;98.00;;;;;;4992189;28;20818;-63
2024/02/18 07:30:09;;;;;;;17.43;6.50;;;6.30;98.00;;;;;;4992053;28;20462;-63
2024/02/18 07:32:36;;;;;;;17.80;5.87;;;6.40;98.00;;;;;;4992105;28;20467;-63
2024/02/18 07:35:03;;;;;;;20.10;7.10;;;6.40;98.00;;;;;;4991968;28;20639;-63
2024/02/18 07:37:31;;;;;;;22.40;7.13;;;6.20;98.00;;;;;;4992018;28;21088;-63
2024/02/18 07:39:58;;;;;;;14.30;7.00;;;6.20;98.00;;;;;;4974601;28;20467;-63
2024/02/18 07:42:26;;;;;;;16.50;7.40;;;6.10;98.00;;;;;;4992206;28;20500;-63
2024/02/18 07:44:53;;;;;;;14.70;6.43;;;6.20;98.00;;;;;;4991688;28;20490;-63
2024/02/18 07:47:21;;;;;;;15.00;7.13;;;6.40;98.00;;;;;;4991963;28;20467;-63
2024/02/18 07:49:48;;;;;;;15.00;6.70;;;6.60;98.00;;;;;;4991703;28;21000;-63
2024/02/18 07:52:16;;;;;;;14.50;7.30;;;6.50;98.00;;;;;;4974474;28;21103;-63
2024/02/18 07:54:45;;;;;;;13.23;6.40;;;6.70;98.00;;;;;;4991786;28;20462;-63
2024/02/18 07:57:13;;;;;;;16.67;7.40;;;6.70;98.00;;;;;;4991827;28;21160;-63
2024/02/18 07:59:41;;;;;;;19.97;7.10;;;6.70;98.00;;;;;;4991828;28;20454;-63
2024/02/18 08:02:09;;;;;;;14.80;6.43;;;6.60;98.00;;;;;;4991584;28;20495;-63
2024/02/18 08:04:38;;;;;;;16.13;6.97;;;6.60;98.00;;;;;;4991793;28;20466;-63
2024/02/18 08:07:05;;;;;;;12.87;6.30;;;6.70;98.00;;;;;;4990122;28;20455;-63
2024/02/18 08:09:32;;;;;;;14.43;6.97;;;6.90;98.00;;;;;;4974679;28;20491;-63
2024/02/18 08:12:00;;;;;;;14.53;6.60;;;6.80;98.00;;;;;;4991870;28;20450;-63
2024/02/18 08:14:28;;;;;;;18.60;7.60;;;6.80;98.00;;;;;;4991828;28;20864;-63
2024/02/18 08:16:56;;;;;;;15.97;7.17;;;6.80;98.00;;;;;;4991855;28;20760;-63
2024/02/18 08:19:23;;;;;;;15.03;6.50;;;6.80;98.00;;;;;;4991603;28;20545;-63
2024/02/18 08:21:51;;;;;;;14.67;6.23;;;6.80;98.00;;;;;;4992725;28;20452;-63
2024/02/18 08:24:18;;;;;;;16.80;6.53;;;7.00;98.00;;;;;;4994599;28;20454;-63
2024/02/18 08:26:45;;;;;;;16.33;6.37;;;7.10;98.00;;;;;;4995125;28;20460;-63
2024/02/18 08:29:12;;;;;;;14.13;6.43;;;7.00;98.00;;;;;;4995381;28;20482;-63
2024/02/18 08:31:39;;;;;;;13.40;6.53;;;7.20;98.00;;;;;;4995445;28;20471;-63
2024/02/18 08:34:08;;;;;;;14.00;6.90;;;7.20;98.00;;;;;;4995285;28;20462;-63
2024/02/18 08:36:35;;;;;;;17.37;7.13;;;7.30;98.00;;;;;;4995218;28;20814;-63
2024/02/18 08:39:02;;;;;;;14.90;7.50;;;7.30;98.00;;;;;;4995192;28;20516;-63
2024/02/18 08:41:29;;;;;;;16.70;7.20;;;7.30;98.00;;;;;;4995320;28;20570;-63
2024/02/18 08:43:56;;;;;;;19.57;7.60;;;7.30;98.00;;;;;;4994981;28;20483;-63
2024/02/18 08:46:24;;;;;;;14.27;6.80;;;7.50;98.00;;;;;;4977891;28;20524;-63
2024/02/18 08:48:51;;;;;;;14.93;7.13;;;7.60;98.00;;;;;;4995016;28;20454;-63
2024/02/18 08:51:20;;;;;;;18.63;8.13;;;7.60;98.00;;;;;;4977821;28;20460;-63
2024/02/18 08:53:47;;;;;;;17.17;9.07;;;7.80;98.00;;;;;;4994924;28;20457;-63
2024/02/18 08:56:15;;;;;;;19.97;8.83;;;8.10;98.00;;;;;;4995171;28;20975;-63
2024/02/18 08:58:42;;;;;;;20.47;8.70;;;8.20;98.00;;;;;;4994731;28;20595;-63
2024/02/18 09:01:10;;;;;;;18.23;8.60;;;8.30;98.00;;;;;;4994766;28;20554;-63
2024/02/18 09:03:37;;;;;;;20.10;9.97;;;8.40;98.00;;;;;;4994618;28;20492;-63
2024/02/18 09:06:05;;;;;;;18.53;8.47;;;8.40;98.00;;;;;;4995002;28;20821;-63
2024/02/18 09:08:33;;;;;;;20.20;9.10;;;8.50;98.00;;;;;;4994397;28;20456;-63
2024/02/18 09:11:00;;;;;;;20.53;8.93;;;8.60;98.00;;;;;;4994502;28;20452;-63
2024/02/18 09:13:27;;;;;;;22.00;9.70;;;8.60;98.00;;;;;;4981237;28;20456;-63
2024/02/18 09:15:56;;;;;;;25.67;10.70;;;8.60;98.00;;;;;;5002965;28;20458;-63
2024/02/18 09:18:23;;;;;;;21.37;9.10;;;8.60;98.00;;;;;;4974930;28;20859;-63
2024/02/18 09:20:50;;;;;;;21.80;9.10;;;8.50;98.00;;;;;;4974980;28;20453;-63
2024/02/18 09:23:17;;;;;;;22.23;8.70;;;8.70;98.00;;;;;;4974778;28;20481;-63
2024/02/18 09:25:47;;;;;;;19.90;8.47;;;8.80;98.00;;;;;;4991176;28;20539;-63
2024/02/18 09:28:15;;;;;;;19.57;9.03;;;8.90;98.00;;;;;;4993920;28;20480;-63
2024/02/18 09:30:43;;;;;;;18.60;8.13;;;9.20;98.00;;;;;;4994700;28;20454;-63
2024/02/18 09:33:11;;;;;;;17.07;8.43;;;9.30;98.00;;;;;;4993907;28;20464;-63
2024/02/18 09:35:38;;;;;;;19.20;9.07;;;9.50;98.00;;;;;;4994163;28;20465;-63
2024/02/18 09:38:08;;;;;;;18.50;8.93;;;9.60;98.00;;;;;;4994067;28;20467;-63
2024/02/18 09:40:36;;;;;;;18.10;8.90;;;9.80;98.00;;;;;;4993882;28;20486;-63
2024/02/18 09:43:05;;;;;;;19.97;9.40;;;9.90;98.00;;;;;;4994106;28;20845;-63
2024/02/18 09:45:34;;;;;;;19.23;8.60;;;10.00;98.00;;;;;;4993988;28;20491;-63
2024/02/18 09:48:03;;;;;;;17.50;8.10;;;10.20;98.00;;;;;;4993759;28;20953;-63
2024/02/18 09:50:31;;;;;;;20.63;9.50;;;10.40;98.00;;;;;;4993826;28;20528;-63
2024/02/18 09:53:00;;;;;;;15.47;7.83;;;10.70;98.00;;;;;;4993731;28;20942;-63
2024/02/18 09:55:27;;;;;;;18.77;9.43;;;10.70;98.00;;;;;;4994014;28;20530;-63
2024/02/18 09:57:54;;;;;;;20.23;9.07;;;10.70;98.00;;;;;;4993897;28;21009;-63
2024/02/18 10:00:25;;;;;;;20.80;8.93;;;10.70;98.00;;;;;;4993996;28;20454;-63
2024/02/18 10:02:52;;;;;;;18.97;8.27;;;10.60;98.00;;;;;;4993111;28;20484;-63
2024/02/18 10:05:22;;;;;;;16.47;7.20;;;10.60;98.00;;;;;;4994821;28;20491;-63
2024/02/18 10:08:00;;;;;;;16.27;7.00;;;10.80;98.00;;;;;;4994177;28;20547;-63
2024/02/18 10:10:27;;;;;;;21.93;7.40;;;11.00;98.00;;;;;;4994328;28;20460;-63
2024/02/18 10:12:54;;;;;;;15.87;7.37;;;11.10;98.00;;;;;;4993717;28;20932;-63
2024/02/18 10:15:23;;;;;;;13.60;6.60;;;11.30;98.00;;;;;;4993587;28;20855;-63
2024/02/18 10:17:51;;;;;;;15.97;7.27;;;11.40;98.00;;;;;;4993168;28;20446;-63
2024/02/18 10:20:18;;;;;;;16.03;7.60;;;11.60;98.00;;;;;;4993131;28;20460;-63
2024/02/18 10:22:46;;;;;;;14.07;7.07;;;11.70;98.00;;;;;;4993091;28;20487;-63
2024/02/18 10:25:14;;;;;;;7.53;4.03;;;11.70;98.00;;;;;;4993165;28;20453;-62
2024/02/18 10:27:41;;;;;;;11.03;5.43;;;11.80;98.00;;;;;;4993280;28;20539;-62
2024/02/18 10:30:10;;;;;;;8.97;5.17;;;12.40;98.00;;;;;;4992858;28;20456;-62
2024/02/18 10:32:38;;;;;;;14.57;7.20;;;13.00;98.00;;;;;;4992869;28;20962;-63
2024/02/18 10:35:06;;;;;;;13.73;6.70;;;13.40;98.00;;;;;;4993083;28;20464;-62
2024/02/18 10:37:38;;;;;;;18.67;6.40;;;13.30;98.00;;;;;;4992910;28;20456;-63
2024/02/18 10:40:13;;;;;;;13.37;6.57;;;13.10;98.00;;;;;;4991632;28;20460;-63
2024/02/18 10:42:43;;;;;;;13.13;6.63;;;13.00;98.00;;;;;;4992792;28;20465;-63
2024/02/18 10:45:13;;;;;;;13.43;6.57;;;12.90;98.00;;;;;;4992307;28;20968;-63
2024/02/18 10:47:50;;;;;;;11.47;6.27;;;13.00;98.00;;;;;;4992639;28;20826;-63
2024/02/18 10:50:18;;;;;;;13.80;6.70;;;13.10;98.00;;;;;;4992825;28;21001;-63
2024/02/18 10:52:47;;;;;;;12.90;6.83;;;13.20;98.00;;;;;;4992767;28;20498;-63
2024/02/18 10:55:19;;;;;;;12.23;6.27;;;13.00;98.00;;;;;;4989766;28;20469;-63
2024/02/18 10:57:51;;;;;;;14.40;6.73;;;13.00;98.00;;;;;;4979312;28;20558;-63
2024/02/18 11:00:18;;;;;;;15.20;7.50;;;13.10;98.00;;;;;;4973853;28;20864;-64
2024/02/18 11:03:06;;;;;;;14.57;7.20;;;13.20;98.00;;;;;;4992899;28;20513;-63
2024/02/18 11:05:35;;;;;;;16.03;6.63;;;13.20;98.00;;;;;;4992515;28;20453;-63
2024/02/18 11:08:04;;;;;;;14.03;7.20;;;13.30;98.00;;;;;;4992207;28;20480;-63
2024/02/18 11:10:32;;;;;;;13.07;6.40;;;13.30;98.00;;;;;;4992257;28;20459;-63
2024/02/18 11:13:00;;;;;;;12.83;6.27;;;13.50;98.00;;;;;;4992181;28;20460;-62
2024/02/18 11:15:27;;;;;;;9.73;5.63;;;13.60;98.00;;;;;;4975151;28;20957;-63
2024/02/18 11:17:57;;;;;;;10.07;5.50;;;13.60;98.00;;;;;;4992320;28;20478;-63
2024/02/18 11:20:25;;;;;;;12.47;5.93;;;13.90;98.00;;;;;;4992167;28;20474;-62
2024/02/18 11:22:53;;;;;;;8.83;5.20;;;14.00;98.00;;;;;;4991974;28;20460;-63
2024/02/18 11:25:22;;;;;;;12.73;5.60;;;14.10;98.00;;;;;;4992084;28;20553;-63
2024/02/18 11:27:49;;;;;;;10.47;5.90;;;14.20;98.00;;;;;;4991914;28;20459;-63
2024/02/18 11:30:17;;;;;;;12.47;5.90;;;14.40;98.00;;;;;;4991830;28;20462;-62
2024/02/18 11:32:44;;;;;;;16.57;6.50;;;14.60;98.00;;;;;;4992217;28;20941;-62
2024/02/18 11:35:17;;;;;;;12.10;6.37;;;14.70;98.00;;;;;;4991542;28;20988;-62
2024/02/18 11:37:44;;;;;;;12.90;6.10;;;14.80;98.00;;;;;;4991826;28;20861;-63
2024/02/18 11:40:17;;;;;;;12.30;6.03;;;14.80;98.00;;;;;;5007834;28;20455;-62
2024/02/18 11:42:46;;;;;;;11.57;6.30;;;14.80;98.00;;;;;;5011487;28;20513;-62
2024/02/18 11:45:14;;;;;;;13.37;6.50;;;14.70;98.00;;;;;;5011684;28;20495;-62
2024/02/18 11:47:45;;;;;;;11.23;5.90;;;14.70;98.00;;;;;;5011835;28;20469;-62
2024/02/18 11:50:14;;;;;;;10.83;5.80;;;14.50;98.00;;;;;;5011583;28;20466;-62
2024/02/18 11:52:42;;;;;;;8.37;5.50;;;14.50;98.00;;;;;;5011781;28;20451;-62
2024/02/18 11:55:15;;;;;;;12.30;5.73;;;14.40;98.00;;;;;;5011540;28;20448;-62
2024/02/18 11:57:42;;;;;;;12.50;5.50;;;14.40;98.00;;;;;;5010938;28;20451;-62
2024/02/18 12:00:11;;;;;;;14.53;5.57;;;14.40;98.00;;;;;;5011472;28;20455;-62
2024/02/18 12:02:39;;;;;;;13.57;5.20;;;14.60;98.00;;;;;;5011503;28;20465;-63
2024/02/18 12:05:10;;;;;;;10.27;5.00;;;14.50;98.00;;;;;;5011181;28;20981;-62
2024/02/18 12:07:40;;;;;;;7.87;4.63;;;14.50;98.00;;;;;;5011415;28;20459;-62
2024/02/18 12:10:08;;;;;;;7.50;4.40;;;14.50;98.00;;;;;;5011546;28;20466;-62
2024/02/18 12:12:36;;;;;;;9.40;5.47;;;14.50;98.00;;;;;;5011603;28;20451;-62
2024/02/18 12:15:05;;;;;;;8.37;4.73;;;14.60;98.00;;;;;;5011330;28;20460;-62
2024/02/18 12:17:33;;;;;;;7.07;3.93;;;14.50;98.00;;;;;;5009479;28;20514;-62
2024/02/18 12:20:01;;;;;;;7.00;4.07;;;14.50;98.00;;;;;;5011410;28;20479;-62
2024/02/18 12:22:28;;;;;;;8.03;4.40;;;14.70;98.00;;;;;;5011454;28;20523;-62
2024/02/18 12:24:57;;;;;;;8.13;4.67;;;14.90;98.00;;;;;;5010932;28;20706;-63
2024/02/18 12:27:24;;;;;;;9.50;4.50;;;14.80;98.00;;;;;;5011132;28;20554;-62
2024/02/18 12:29:53;;;;;;;7.27;4.23;;;14.90;98.00;;;;;;5010966;28;20452;-62
2024/02/18 12:32:20;;;;;;;7.70;4.67;;;15.00;98.00;;;;;;5011051;28;20459;-62
2024/02/18 12:34:50;;;;;;;7.50;4.03;;;15.10;98.00;;;;;;4993334;28;20992;-62
2024/02/18 12:37:19;;;;;;;9.20;4.30;;;15.10;98.00;;;;;;5011221;28;20478;-62
2024/02/18 12:39:49;;;;;;;7.50;4.13;;;15.20;98.00;;;;;;5010985;28;20455;-62
2024/02/18 12:42:18;;;;;;;6.77;4.37;;;15.20;98.00;;;;;;5010926;28;20452;-62
2024/02/18 12:44:45;;;;;;;6.93;4.13;;;15.30;98.00;;;;;;5010825;28;20483;-62
2024/02/18 12:47:13;;;;;;;6.57;4.13;;;15.30;98.00;;;;;;5010800;28;20459;-62
2024/02/18 12:49:40;;;;;;;6.83;4.10;;;15.30;98.00;;;;;;5009734;28;20455;-62
2024/02/18 12:52:08;;;;;;;5.80;3.70;;;15.20;98.00;;;;;;5010838;28;20452;-62